Hatchel, Texas
Current Conditions -  °F | °C
As of 12:58 AM on Friday 31 Oct 2014 (Local Time) from KDYS Reporting Station
Clear Clear  
Wind Chill: 63°   Ceiling: Unl
Heat Index: 63°   Visibility: 10mi
Dew Point: 41°   Wind: 6mph
Humidity: 46%   Direction: 40°NE
Pressure: 30.25"   Gusts: NA
Location:  31.975°N, 99.9034°W
Report Text: KDYS 310558Z AUTO 04005KT 10SM CLR 17/05 A3025 RMK AO2 SLP209 T01700052 10247 20170 402820140 51020 $
Loading
Personal Weather Stations






























Interactive Weather Map
Tropical Storm Tracking
New forecast layout! Learn more

10-Day Weather Forecast

Advertisements
Track Severe Weather on mobile